createdAt,value
2022-12-31T00:00:03.031Z,3
2022-12-31T00:16:00.580Z,2.89
2022-12-31T00:31:02.746Z,3.06
2022-12-31T00:46:00.184Z,2.94
2022-12-31T01:00:02.315Z,2.78
2022-12-31T01:16:04.664Z,2.67
2022-12-31T01:31:02.227Z,2.78
2022-12-31T01:46:04.119Z,2.94
2022-12-31T02:00:01.215Z,3.06
2022-12-31T02:16:03.624Z,3.22
2022-12-31T02:31:00.943Z,3.22
2022-12-31T02:46:02.940Z,3.44
2022-12-31T02:59:59.998Z,3.22
2022-12-31T03:16:02.775Z,3.17
2022-12-31T03:31:01.922Z,2.89
2022-12-31T03:46:02.249Z,2.5
2022-12-31T04:00:04.185Z,2.61
2022-12-31T04:16:01.560Z,3
2022-12-31T04:31:03.588Z,3.44
2022-12-31T04:46:00.888Z,3.72
2022-12-31T05:00:02.811Z,3.56
2022-12-31T05:16:00.638Z,3.5
2022-12-31T05:31:02.815Z,3.5
2022-12-31T05:46:04.790Z,3.39
2022-12-31T06:00:01.850Z,2.94
2022-12-31T06:16:04.163Z,2.5
2022-12-31T06:31:01.432Z,2.28
2022-12-31T06:46:03.701Z,2.28
2022-12-31T07:00:00.639Z,2.28
2022-12-31T07:16:03.239Z,2.22
2022-12-31T07:31:00.257Z,2.06
2022-12-31T07:46:03.035Z,1.78
2022-12-31T08:00:04.174Z,1.78
2022-12-31T08:16:01.581Z,2.11
2022-12-31T08:31:03.781Z,2.94
2022-12-31T08:46:01.019Z,3.89
2022-12-31T09:00:03.477Z,4.5
2022-12-31T09:16:00.179Z,4.61
2022-12-31T09:31:02.568Z,4.56
2022-12-31T09:46:04.565Z,5.11
2022-12-31T10:00:01.821Z,5.94
2022-12-31T10:16:03.804Z,6.44
2022-12-31T10:31:01.411Z,6.72
2022-12-31T10:46:03.259Z,7.44
2022-12-31T11:00:00.215Z,8
2022-12-31T11:16:02.523Z,8.39
2022-12-31T11:31:04.780Z,8.44
2022-12-31T11:46:01.994Z,8.61
2022-12-31T12:00:03.869Z,8.5
2022-12-31T12:16:01.313Z,8.44
2022-12-31T12:31:03.629Z,8.78
2022-12-31T12:46:00.756Z,9.11
2022-12-31T13:00:02.618Z,9.44
2022-12-31T13:16:05.038Z,9.67
2022-12-31T13:31:06.816Z,9.72
2022-12-31T13:46:04.209Z,9.78
2022-12-31T14:00:01.323Z,9.94
2022-12-31T14:16:03.639Z,9.72
2022-12-31T14:31:00.783Z,9.06
2022-12-31T14:46:03.147Z,8.33
2022-12-31T14:59:59.937Z,7.78
2022-12-31T15:16:02.228Z,7.33
2022-12-31T15:31:04.388Z,6.89
2022-12-31T15:46:02.923Z,6.33
2022-12-31T16:00:04.546Z,5.83
2022-12-31T16:16:01.037Z,5.28
2022-12-31T16:31:03.432Z,4.72
2022-12-31T16:46:00.436Z,4.39
2022-12-31T17:00:02.478Z,4.17
2022-12-31T17:16:00.008Z,3.78
2022-12-31T17:31:02.320Z,3.44
2022-12-31T17:46:04.537Z,3.22
2022-12-31T18:00:01.359Z,3.11
2022-12-31T18:16:03.758Z,3.11
2022-12-31T18:31:00.832Z,3.33
2022-12-31T18:46:03.378Z,3.44
2022-12-31T19:00:00.079Z,3.22
2022-12-31T19:16:02.425Z,3.28
2022-12-31T19:31:04.485Z,3.33
2022-12-31T19:46:01.716Z,3
2022-12-31T20:00:03.472Z,3.33
2022-12-31T20:16:00.803Z,3.61
2022-12-31T20:31:03.001Z,3.67
2022-12-31T20:46:00.158Z,3.72
2022-12-31T21:00:02.312Z,3.72
2022-12-31T21:16:04.549Z,3.89
2022-12-31T21:31:01.782Z,3.61
2022-12-31T21:46:10.296Z,3.39
2022-12-31T22:00:31.831Z,3.5
2022-12-31T22:16:05.680Z,3.44
2022-12-31T22:31:00.907Z,3.22
2022-12-31T22:46:03.847Z,3.28
2022-12-31T22:59:59.762Z,3.56
2022-12-31T23:16:02.388Z,3.67
2022-12-31T23:31:04.660Z,3.61
2022-12-31T23:46:01.588Z,3.56
